Paris Crossing, Indiana
Current Conditions -  °F | °C
As of 3:53 PM on Friday 28 Nov 2014 (Local Time) from KLOU Reporting Station
Clear Clear  
Wind Chill: 31°   Ceiling: Unl
Heat Index: 38°   Visibility: 10mi
Dew Point: 19°   Wind: 9mph
Humidity: 47%   Direction: 170°S
Pressure: 30.22"   Gusts: NA
Location:  38.83°N, 85.65°W
Report Text: KLOU 282053Z 17008KT 10SM CLR 03/M07 A3022 RMK AO2 SLP237 T00331072 56033
Loading
Personal Weather Stations






























Interactive Weather Map New forecast layout! Learn more

10-Day Weather Forecast

Advertisements
Track Severe Weather on mobile